createdAt,value
2022-08-29T00:01:47.971Z,3.03
2022-08-29T00:04:14.890Z,3.03
2022-08-29T00:06:41.465Z,3.10
2022-08-29T00:09:07.977Z,3.63
2022-08-29T00:11:34.382Z,3.25
2022-08-29T00:14:00.880Z,3.75
2022-08-29T00:16:27.460Z,3.15
2022-08-29T00:18:53.986Z,2.95
2022-08-29T00:21:20.431Z,2.95
2022-08-29T00:23:46.990Z,3.15
2022-08-29T00:26:13.353Z,3.05
2022-08-29T00:28:39.883Z,3.00
2022-08-29T00:31:06.411Z,3.20
2022-08-29T00:33:32.716Z,3.05
2022-08-29T00:35:59.265Z,2.70
2022-08-29T00:38:27.992Z,3.05
2022-08-29T00:40:56.180Z,2.97
2022-08-29T00:43:28.589Z,3.15
2022-08-29T00:45:57.953Z,3.00
2022-08-29T00:48:24.452Z,2.83
2022-08-29T00:50:55.206Z,3.35
2022-08-29T00:53:28.215Z,3.10
2022-08-29T00:55:55.233Z,4.00
2022-08-29T00:58:25.071Z,3.33
2022-08-29T01:00:52.248Z,3.70
2022-08-29T01:03:18.915Z,3.65
2022-08-29T01:05:46.190Z,3.50
2022-08-29T01:08:12.738Z,4.10
2022-08-29T01:10:57.659Z,3.80
2022-08-29T01:13:26.011Z,3.75
2022-08-29T01:15:52.815Z,3.30
2022-08-29T01:18:19.802Z,3.47
2022-08-29T01:21:10.647Z,3.70
2022-08-29T01:23:56.056Z,3.45
2022-08-29T01:26:23.106Z,3.25
2022-08-29T01:28:51.479Z,3.63
2022-08-29T01:31:42.171Z,3.65
2022-08-29T01:34:15.642Z,3.17
2022-08-29T01:36:47.505Z,3.22
2022-08-29T01:39:14.535Z,3.10
2022-08-29T01:41:42.335Z,3.45
2022-08-29T01:44:10.508Z,3.35
2022-08-29T01:46:37.241Z,3.00
2022-08-29T01:49:04.710Z,3.33
2022-08-29T01:51:31.702Z,3.05
2022-08-29T01:53:58.088Z,3.05
2022-08-29T01:56:26.712Z,2.67
2022-08-29T01:58:53.813Z,3.05
2022-08-29T02:01:24.403Z,2.80
2022-08-29T02:03:52.443Z,3.50
2022-08-29T02:06:19.098Z,2.40
2022-08-29T02:08:45.676Z,3.03
2022-08-29T02:11:13.111Z,2.78
2022-08-29T02:13:40.907Z,3.40
2022-08-29T02:16:07.488Z,3.38
2022-08-29T02:18:33.858Z,2.60
2022-08-29T02:21:00.723Z,3.42
2022-08-29T02:23:30.996Z,2.83
2022-08-29T02:25:57.931Z,3.10
2022-08-29T02:28:24.536Z,2.90
2022-08-29T02:30:56.768Z,3.67
2022-08-29T02:33:26.192Z,3.28
2022-08-29T02:35:55.415Z,3.17
2022-08-29T02:38:21.884Z,3.05
2022-08-29T02:40:48.998Z,3.35
2022-08-29T02:43:18.179Z,3.42
2022-08-29T02:45:44.999Z,3.70
2022-08-29T02:48:12.105Z,3.30
2022-08-29T02:50:48.882Z,3.35
2022-08-29T02:53:16.310Z,2.97
2022-08-29T02:55:42.796Z,3.35
2022-08-29T02:58:09.557Z,3.65
2022-08-29T03:00:36.452Z,3.70
2022-08-29T03:03:03.777Z,3.03
2022-08-29T03:05:32.442Z,3.42
2022-08-29T03:07:59.253Z,3.25
2022-08-29T03:10:26.075Z,3.13
2022-08-29T03:12:52.784Z,3.55
2022-08-29T03:15:19.693Z,3.28
2022-08-29T03:17:46.427Z,3.10
2022-08-29T03:20:14.299Z,3.70
2022-08-29T03:22:40.833Z,3.75
2022-08-29T03:25:07.879Z,3.08
2022-08-29T03:27:35.080Z,3.30
2022-08-29T03:30:01.987Z,3.33
2022-08-29T03:32:28.640Z,3.22
2022-08-29T03:34:55.209Z,3.80
2022-08-29T03:37:21.779Z,3.58
2022-08-29T03:39:51.216Z,3.08
2022-08-29T03:42:17.615Z,3.00
2022-08-29T03:44:44.118Z,3.03
2022-08-29T03:47:10.519Z,3.28
2022-08-29T03:49:36.991Z,3.75
2022-08-29T03:52:04.039Z,3.22
2022-08-29T03:54:30.442Z,3.45
2022-08-29T03:56:56.900Z,3.58
2022-08-29T03:59:23.326Z,3.17
2022-08-29T04:01:50.737Z,3.38
2022-08-29T04:04:36.201Z,3.30
2022-08-29T04:07:03.206Z,3.03
2022-08-29T04:09:30.272Z,3.03
2022-08-29T04:11:56.655Z,3.13
2022-08-29T04:14:23.215Z,3.30
2022-08-29T04:16:52.286Z,3.30
2022-08-29T04:19:19.799Z,3.60
2022-08-29T04:21:48.816Z,3.30
2022-08-29T04:24:19.847Z,3.53
2022-08-29T04:26:46.412Z,3.50
2022-08-29T04:29:13.853Z,3.38
2022-08-29T04:31:41.832Z,3.65
2022-08-29T04:34:09.334Z,4.13
2022-08-29T04:36:36.912Z,3.88
2022-08-29T04:39:04.495Z,4.10
2022-08-29T04:41:33.202Z,4.20
2022-08-29T04:43:59.988Z,4.47
2022-08-29T04:46:26.502Z,3.88
2022-08-29T04:48:53.568Z,5.00
2022-08-29T04:51:20.097Z,4.95
2022-08-29T04:53:46.773Z,4.68
2022-08-29T04:56:13.546Z,4.55
2022-08-29T04:58:42.083Z,5.15
2022-08-29T05:01:14.559Z,5.32
2022-08-29T05:03:40.953Z,5.80
2022-08-29T05:06:09.312Z,5.30
2022-08-29T05:08:37.435Z,5.35
2022-08-29T05:11:05.334Z,4.88
2022-08-29T05:13:31.632Z,5.18
2022-08-29T05:15:58.020Z,5.32
2022-08-29T05:18:24.377Z,4.70
2022-08-29T05:20:50.693Z,3.95
2022-08-29T05:23:17.904Z,5.47
2022-08-29T05:25:44.576Z,5.00
2022-08-29T05:28:12.061Z,5.30
2022-08-29T05:30:41.703Z,5.85
2022-08-29T05:33:08.555Z,4.88
2022-08-29T05:35:35.284Z,6.35
2022-08-29T05:38:05.839Z,5.25
2022-08-29T05:40:35.963Z,4.82
2022-08-29T05:43:02.348Z,4.95
2022-08-29T05:45:28.774Z,5.45
2022-08-29T05:47:55.936Z,5.68
2022-08-29T05:50:22.494Z,5.63
2022-08-29T05:52:49.069Z,5.55
2022-08-29T05:55:15.779Z,5.45
2022-08-29T05:57:42.156Z,5.78
2022-08-29T06:00:09.493Z,6.45
2022-08-29T06:02:35.970Z,6.28
2022-08-29T06:05:04.567Z,6.07
2022-08-29T06:07:33.033Z,6.28
2022-08-29T06:10:03.879Z,5.60
2022-08-29T06:12:30.443Z,5.57
2022-08-29T06:14:56.757Z,5.80
2022-08-29T06:17:23.091Z,4.75
2022-08-29T06:19:50.360Z,4.90
2022-08-29T06:22:16.694Z,5.60
2022-08-29T06:24:45.214Z,5.35
2022-08-29T06:27:14.116Z,5.20
2022-08-29T06:29:43.610Z,6.50
2022-08-29T06:32:10.652Z,5.00
2022-08-29T06:34:36.949Z,4.85
2022-08-29T06:37:03.307Z,5.93
2022-08-29T06:39:29.708Z,5.97
2022-08-29T06:41:56.028Z,6.15
2022-08-29T06:44:23.652Z,6.40
2022-08-29T06:46:50.707Z,6.53
2022-08-29T06:49:18.689Z,5.47
2022-08-29T06:51:49.094Z,5.80
2022-08-29T06:54:15.944Z,6.13
2022-08-29T06:56:43.420Z,6.47
2022-08-29T06:59:10.202Z,5.05
2022-08-29T07:01:36.684Z,4.72
2022-08-29T07:04:03.417Z,4.28
2022-08-29T07:06:31.296Z,4.80
2022-08-29T07:08:58.132Z,5.03
2022-08-29T07:11:25.225Z,6.28
2022-08-29T07:13:51.696Z,5.85
2022-08-29T07:16:18.901Z,7.30
2022-08-29T07:18:46.292Z,5.20
2022-08-29T07:21:19.549Z,4.95
2022-08-29T07:23:46.869Z,5.10
2022-08-29T07:26:14.370Z,4.97
2022-08-29T07:28:45.641Z,4.72
2022-08-29T07:31:13.666Z,4.70
2022-08-29T07:33:40.022Z,5.18
2022-08-29T07:36:06.468Z,4.85
2022-08-29T07:38:33.889Z,4.63
2022-08-29T07:41:03.256Z,4.90
2022-08-29T07:43:29.665Z,5.38
2022-08-29T07:45:56.741Z,5.00
2022-08-29T07:48:24.241Z,5.72
2022-08-29T07:50:52.840Z,6.07
2022-08-29T07:53:19.176Z,5.35
2022-08-29T07:55:45.475Z,5.35
2022-08-29T07:58:11.848Z,5.40
2022-08-29T08:00:38.207Z,5.25
2022-08-29T08:03:04.595Z,4.95
2022-08-29T08:05:30.992Z,5.47
2022-08-29T08:07:57.645Z,5.63
2022-08-29T08:10:25.638Z,4.85
2022-08-29T08:12:52.050Z,4.85
2022-08-29T08:15:18.694Z,5.00
2022-08-29T08:17:44.997Z,5.85
2022-08-29T08:20:12.014Z,5.60
2022-08-29T08:22:38.405Z,4.88
2022-08-29T08:25:05.352Z,4.85
2022-08-29T08:27:32.228Z,4.10
2022-08-29T08:29:59.858Z,4.35
2022-08-29T08:32:32.249Z,4.43
2022-08-29T08:34:58.936Z,4.15
2022-08-29T08:37:27.945Z,4.65
2022-08-29T08:39:58.120Z,4.30
2022-08-29T08:42:44.030Z,4.18
2022-08-29T08:45:22.911Z,4.22
2022-08-29T08:47:51.041Z,3.60
2022-08-29T08:50:21.366Z,3.67
2022-08-29T08:52:58.646Z,4.07
2022-08-29T08:55:28.215Z,4.10
2022-08-29T08:58:11.405Z,3.65
2022-08-29T09:00:41.826Z,4.43
2022-08-29T09:03:15.027Z,3.10
2022-08-29T09:05:47.240Z,3.95
2022-08-29T09:08:34.316Z,3.60
2022-08-29T09:11:03.092Z,3.60
2022-08-29T09:13:39.819Z,4.18
2022-08-29T09:16:14.781Z,3.22
2022-08-29T09:18:42.061Z,3.42
2022-08-29T09:21:39.014Z,2.80
2022-08-29T09:24:02.106Z,4.00
2022-08-29T09:26:28.480Z,3.30
2022-08-29T09:28:54.868Z,3.47
2022-08-29T09:31:21.257Z,3.75
2022-08-29T09:33:52.308Z,3.53
2022-08-29T09:36:37.195Z,3.67
2022-08-29T09:39:14.871Z,3.90
2022-08-29T09:41:41.287Z,3.72
2022-08-29T09:44:12.024Z,3.85
2022-08-29T09:46:38.357Z,3.10
2022-08-29T09:49:04.660Z,3.13
2022-08-29T09:51:30.987Z,3.88
2022-08-29T09:54:16.223Z,3.70
2022-08-29T09:56:50.948Z,3.58
2022-08-29T09:59:29.841Z,3.13
2022-08-29T10:02:14.570Z,3.88
2022-08-29T10:04:43.053Z,4.10
2022-08-29T10:07:10.708Z,3.88
2022-08-29T10:09:37.094Z,3.63
2022-08-29T10:12:07.616Z,4.47
2022-08-29T10:14:35.855Z,4.25
2022-08-29T10:17:27.374Z,3.85
2022-08-29T10:19:53.703Z,4.20
2022-08-29T10:22:38.731Z,3.88
2022-08-29T10:25:23.683Z,3.33
2022-08-29T10:27:55.829Z,4.10
2022-08-29T10:30:34.592Z,4.47
2022-08-29T10:33:00.892Z,3.75
2022-08-29T10:35:28.088Z,4.53
2022-08-29T10:37:59.372Z,3.63
2022-08-29T10:40:43.313Z,4.28
2022-08-29T10:43:39.589Z,4.03
2022-08-29T10:48:37.990Z,4.25
2022-08-29T10:51:28.132Z,3.90
2022-08-29T10:54:01.898Z,3.67
2022-08-29T10:56:33.086Z,4.10
2022-08-29T10:59:12.273Z,3.88
2022-08-29T11:01:41.123Z,5.00
2022-08-29T11:04:17.385Z,4.03
2022-08-29T11:06:51.643Z,4.32
2022-08-29T11:09:20.736Z,3.95
2022-08-29T11:12:05.547Z,4.00
2022-08-29T11:14:35.623Z,4.07
2022-08-29T11:17:03.751Z,4.00
2022-08-29T11:19:49.385Z,3.63
2022-08-29T11:22:21.595Z,4.25
2022-08-29T11:25:00.343Z,4.20
2022-08-29T11:27:45.713Z,3.95
2022-08-29T11:30:20.650Z,3.42
2022-08-29T11:32:53.075Z,3.97
2022-08-29T11:35:25.204Z,3.90
2022-08-29T11:37:57.479Z,4.07
2022-08-29T11:43:19.668Z,3.45
2022-08-29T11:45:54.159Z,3.92
2022-08-29T11:48:31.520Z,3.78
2022-08-29T11:50:58.490Z,3.55
2022-08-29T11:53:37.843Z,4.07
2022-08-29T11:56:12.998Z,4.03
2022-08-29T12:01:12.124Z,4.05
2022-08-29T12:03:38.643Z,4.43
2022-08-29T12:06:23.576Z,3.55
2022-08-29T12:09:02.880Z,3.95
2022-08-29T12:12:12.872Z,3.72
2022-08-29T12:14:39.479Z,4.20
2022-08-29T12:17:08.044Z,3.92
2022-08-29T12:19:49.559Z,3.75
2022-08-29T12:22:34.628Z,3.35
2022-08-29T12:25:20.933Z,3.72
2022-08-29T12:27:58.166Z,3.20
2022-08-29T12:30:24.490Z,3.38
2022-08-29T12:33:06.187Z,3.22
2022-08-29T12:35:52.009Z,3.15
2022-08-29T12:38:31.233Z,4.40
2022-08-29T12:40:57.605Z,4.05
2022-08-29T12:43:31.443Z,3.40
2022-08-29T12:45:58.852Z,3.63
2022-08-29T12:48:35.840Z,3.40
2022-08-29T12:51:04.533Z,3.72
2022-08-29T12:53:34.432Z,3.70
2022-08-29T12:56:00.775Z,3.90
2022-08-29T12:58:50.197Z,3.58
2022-08-29T13:01:26.291Z,3.60
2022-08-29T13:04:00.875Z,3.85
2022-08-29T13:06:27.512Z,5.28
2022-08-29T13:08:53.843Z,3.30
2022-08-29T13:11:22.100Z,3.30
2022-08-29T13:13:49.384Z,3.65
2022-08-29T13:16:23.643Z,3.75
2022-08-29T13:19:07.771Z,3.72
2022-08-29T13:21:36.501Z,3.35
2022-08-29T13:24:13.566Z,3.72
2022-08-29T13:26:42.996Z,3.70
2022-08-29T13:29:49.329Z,3.40
2022-08-29T13:32:23.069Z,3.30
2022-08-29T13:35:01.511Z,3.45
2022-08-29T13:37:31.008Z,3.42
2022-08-29T13:39:57.410Z,3.83
2022-08-29T13:42:28.536Z,3.20
2022-08-29T13:45:00.229Z,3.80
2022-08-29T13:47:28.804Z,3.60
2022-08-29T13:50:13.289Z,3.35
2022-08-29T13:52:39.642Z,2.90
2022-08-29T13:55:07.133Z,3.75
2022-08-29T13:57:34.767Z,4.22
2022-08-29T14:00:01.188Z,3.58
2022-08-29T14:02:28.476Z,3.58
2022-08-29T14:04:54.996Z,3.80
2022-08-29T14:07:23.967Z,3.63
2022-08-29T14:09:50.641Z,3.78
2022-08-29T14:12:17.334Z,3.65
2022-08-29T14:14:44.324Z,4.03
2022-08-29T14:17:11.465Z,3.97
2022-08-29T14:19:45.182Z,3.35
2022-08-29T14:22:11.700Z,3.28
2022-08-29T14:24:38.687Z,3.78
2022-08-29T14:27:05.349Z,3.25
2022-08-29T14:29:32.419Z,3.20
2022-08-29T14:31:59.335Z,3.88
2022-08-29T14:34:32.161Z,3.50
2022-08-29T14:36:58.963Z,3.72
2022-08-29T14:39:26.563Z,3.20
2022-08-29T14:41:53.275Z,3.08
2022-08-29T14:44:21.084Z,3.45
2022-08-29T14:46:47.689Z,3.22
2022-08-29T14:49:14.217Z,3.38
2022-08-29T14:51:41.260Z,3.28
2022-08-29T14:54:07.573Z,2.97
2022-08-29T14:56:50.457Z,3.20
2022-08-29T14:59:20.908Z,3.67
2022-08-29T15:01:52.944Z,3.65
2022-08-29T15:04:27.456Z,4.05
2022-08-29T15:07:04.068Z,3.10
2022-08-29T15:09:30.404Z,3.70
2022-08-29T15:11:56.721Z,2.88
2022-08-29T15:14:23.155Z,3.72
2022-08-29T15:16:49.547Z,3.95
2022-08-29T15:20:04.016Z,3.50
2022-08-29T15:22:02.897Z,2.85
2022-08-29T15:24:29.947Z,2.65
2022-08-29T15:26:56.519Z,3.30
2022-08-29T15:29:22.973Z,3.38
2022-08-29T15:31:51.591Z,3.20
2022-08-29T15:34:18.690Z,3.40
2022-08-29T15:36:45.264Z,4.18
2022-08-29T15:39:13.125Z,3.78
2022-08-29T15:41:39.444Z,4.05
2022-08-29T15:44:05.774Z,3.70
2022-08-29T15:46:37.925Z,3.80
2022-08-29T15:49:07.380Z,3.50
2022-08-29T15:51:34.139Z,3.47
2022-08-29T15:54:00.670Z,4.20
2022-08-29T15:56:27.067Z,3.50
2022-08-29T15:58:53.389Z,3.50
2022-08-29T16:01:19.748Z,3.72
2022-08-29T16:03:46.061Z,3.58
2022-08-29T16:06:12.454Z,3.47
2022-08-29T16:08:38.899Z,3.53
2022-08-29T16:11:12.499Z,3.50
2022-08-29T16:13:38.831Z,3.45
2022-08-29T16:16:05.385Z,3.08
2022-08-29T16:18:31.777Z,3.25
2022-08-29T16:20:58.122Z,3.97
2022-08-29T16:23:24.488Z,3.70
2022-08-29T16:25:50.798Z,3.53
2022-08-29T16:28:17.359Z,3.38
2022-08-29T16:30:46.306Z,3.47
2022-08-29T16:33:13.252Z,3.22
2022-08-29T16:35:39.556Z,2.95
2022-08-29T16:38:05.879Z,3.13
2022-08-29T16:40:32.451Z,3.45
2022-08-29T16:42:58.984Z,3.28
2022-08-29T16:45:25.416Z,3.60
2022-08-29T16:47:56.754Z,3.17
2022-08-29T16:50:24.240Z,3.33
2022-08-29T16:52:50.548Z,3.38
2022-08-29T16:55:16.869Z,3.78
2022-08-29T16:58:03.161Z,2.97
2022-08-29T17:00:30.319Z,3.58
2022-08-29T17:02:56.842Z,3.55
2022-08-29T17:05:24.344Z,3.45
2022-08-29T17:07:50.644Z,2.92
2022-08-29T17:10:16.931Z,3.03
2022-08-29T17:12:43.210Z,3.55
2022-08-29T17:15:09.571Z,3.00
2022-08-29T17:17:35.944Z,3.30
2022-08-29T17:20:02.327Z,3.03
2022-08-29T17:22:28.705Z,3.25
2022-08-29T17:24:55.069Z,3.35
2022-08-29T17:27:22.703Z,3.65
2022-08-29T17:29:50.296Z,3.42
2022-08-29T17:32:16.907Z,3.45
2022-08-29T17:34:43.269Z,3.33
2022-08-29T17:37:10.841Z,3.67
2022-08-29T17:39:40.027Z,3.13
2022-08-29T17:42:06.740Z,3.40
2022-08-29T17:44:33.564Z,3.88
2022-08-29T17:47:00.288Z,3.35
2022-08-29T17:49:27.042Z,3.58
2022-08-29T17:51:54.494Z,3.10
2022-08-29T17:54:21.482Z,3.40
2022-08-29T17:56:49.010Z,3.85
2022-08-29T17:59:16.478Z,3.65
2022-08-29T18:01:42.982Z,3.60
2022-08-29T18:04:09.987Z,3.55
2022-08-29T18:06:36.469Z,3.97
2022-08-29T18:09:03.411Z,3.95
2022-08-29T18:11:31.911Z,4.20
2022-08-29T18:13:58.357Z,5.22
2022-08-29T18:16:24.881Z,3.90
2022-08-29T18:18:51.621Z,3.65
2022-08-29T18:21:18.654Z,3.55
2022-08-29T18:23:45.536Z,3.25
2022-08-29T18:26:12.064Z,3.88
2022-08-29T18:28:38.446Z,3.30
2022-08-29T18:31:05.003Z,4.20
2022-08-29T18:33:50.353Z,4.05
2022-08-29T18:36:18.455Z,4.20
2022-08-29T18:38:44.768Z,4.22
2022-08-29T18:41:11.359Z,3.30
2022-08-29T18:43:37.664Z,4.80
2022-08-29T18:46:04.223Z,4.45
2022-08-29T18:48:30.921Z,3.80
2022-08-29T18:50:57.551Z,4.32
2022-08-29T18:53:26.170Z,3.90
2022-08-29T18:55:53.332Z,3.85
2022-08-29T18:58:20.700Z,4.05
2022-08-29T19:00:47.495Z,3.72
2022-08-29T19:03:14.276Z,3.72
2022-08-29T19:05:41.853Z,3.42
2022-08-29T19:08:10.171Z,4.43
2022-08-29T19:10:36.507Z,4.03
2022-08-29T19:13:03.519Z,3.92
2022-08-29T19:15:29.886Z,3.40
2022-08-29T19:17:56.734Z,3.95
2022-08-29T19:20:42.627Z,4.13
2022-08-29T19:23:09.356Z,4.13
2022-08-29T19:25:36.504Z,4.57
2022-08-29T19:28:03.753Z,5.30
2022-08-29T19:30:30.112Z,5.85
2022-08-29T19:32:56.582Z,5.90
2022-08-29T19:35:23.236Z,6.07
2022-08-29T19:37:49.883Z,5.45
2022-08-29T19:40:17.990Z,4.70
2022-08-29T19:42:45.951Z,5.78
2022-08-29T19:45:14.471Z,4.50
2022-08-29T19:47:40.784Z,4.35
2022-08-29T19:50:09.009Z,4.20
2022-08-29T19:52:35.853Z,3.65
2022-08-29T19:55:03.739Z,4.70
2022-08-29T19:57:30.678Z,4.05
2022-08-29T19:59:57.317Z,4.40
2022-08-29T20:02:25.734Z,4.97
2022-08-29T20:04:52.284Z,5.40
2022-08-29T20:07:19.826Z,4.55
2022-08-29T20:09:46.925Z,5.65
2022-08-29T20:12:13.964Z,6.20
2022-08-29T20:14:40.948Z,6.95
2022-08-29T20:17:09.220Z,5.80
2022-08-29T20:19:36.470Z,5.53
2022-08-29T20:22:06.027Z,5.68
2022-08-29T20:24:33.541Z,4.75
2022-08-29T20:27:00.901Z,5.20
2022-08-29T20:29:27.848Z,4.97
2022-08-29T20:31:56.641Z,4.75
2022-08-29T20:34:23.241Z,4.00
2022-08-29T20:37:08.096Z,4.97
2022-08-29T20:39:35.550Z,4.10
2022-08-29T20:42:02.200Z,4.15
2022-08-29T20:44:33.773Z,3.88
2022-08-29T20:47:01.085Z,4.72
2022-08-29T20:49:27.651Z,4.85
2022-08-29T20:51:54.404Z,4.43
2022-08-29T20:54:24.060Z,4.95
2022-08-29T20:56:51.335Z,4.43
2022-08-29T20:59:17.871Z,4.30
2022-08-29T21:01:44.555Z,4.13
2022-08-29T21:04:30.444Z,4.18
2022-08-29T21:06:58.640Z,4.05
2022-08-29T21:09:25.038Z,5.45
2022-08-29T21:11:52.136Z,3.72
2022-08-29T21:14:18.984Z,3.95
2022-08-29T21:16:46.110Z,4.57
2022-08-29T21:19:12.724Z,4.07
2022-08-29T21:21:40.420Z,4.07
2022-08-29T21:24:07.752Z,4.25
2022-08-29T21:26:34.654Z,4.10
2022-08-29T21:29:01.516Z,4.07
2022-08-29T21:31:28.151Z,4.55
2022-08-29T21:33:54.694Z,4.50
2022-08-29T21:36:22.694Z,4.50
2022-08-29T21:38:52.368Z,4.78
2022-08-29T21:41:18.848Z,4.20
2022-08-29T21:43:45.230Z,4.22
2022-08-29T21:46:19.364Z,4.15
2022-08-29T21:48:46.267Z,4.68
2022-08-29T21:51:13.956Z,4.45
2022-08-29T21:53:41.498Z,4.45
2022-08-29T21:56:08.330Z,5.00
2022-08-29T21:58:35.103Z,4.75
2022-08-29T22:01:01.563Z,4.82
2022-08-29T22:03:28.223Z,5.10
2022-08-29T22:05:55.039Z,4.30
2022-08-29T22:08:21.522Z,4.75
2022-08-29T22:10:48.555Z,4.95
2022-08-29T22:13:15.738Z,4.53
2022-08-29T22:16:01.324Z,4.80
2022-08-29T22:18:27.903Z,3.90
2022-08-29T22:20:57.004Z,4.55
2022-08-29T22:23:24.602Z,4.97
2022-08-29T22:25:51.233Z,4.47
2022-08-29T22:28:17.608Z,4.97
2022-08-29T22:30:44.062Z,4.90
2022-08-29T22:33:16.202Z,5.32
2022-08-29T22:35:43.270Z,5.40
2022-08-29T22:38:09.707Z,5.10
2022-08-29T22:40:36.322Z,5.00
2022-08-29T22:43:02.824Z,5.90
2022-08-29T22:45:29.288Z,5.75
2022-08-29T22:47:55.868Z,5.10
2022-08-29T22:50:23.327Z,5.25
2022-08-29T22:52:49.940Z,5.80
2022-08-29T22:55:18.097Z,5.20
2022-08-29T22:57:45.412Z,5.85
2022-08-29T23:00:13.640Z,5.20
2022-08-29T23:02:39.990Z,5.40
2022-08-29T23:05:09.766Z,5.85
2022-08-29T23:07:36.566Z,5.80
2022-08-29T23:10:04.419Z,5.18
2022-08-29T23:12:31.021Z,5.70
2022-08-29T23:14:57.407Z,5.43
2022-08-29T23:17:23.931Z,5.47
2022-08-29T23:19:50.385Z,5.50
2022-08-29T23:22:17.099Z,5.20
2022-08-29T23:24:57.675Z,5.18
2022-08-29T23:27:25.116Z,4.93
2022-08-29T23:29:51.682Z,5.78
2022-08-29T23:32:18.264Z,5.30
2022-08-29T23:34:44.644Z,5.68
2022-08-29T23:37:11.941Z,5.28
2022-08-29T23:39:38.288Z,4.97
2022-08-29T23:42:05.268Z,5.18
2022-08-29T23:44:31.769Z,4.70
2022-08-29T23:46:58.456Z,4.95
2022-08-29T23:49:24.863Z,5.03
2022-08-29T23:51:51.368Z,5.13
2022-08-29T23:54:18.211Z,4.85
2022-08-29T23:56:44.727Z,4.70
2022-08-29T23:59:31.132Z,4.85
